Time;durP1;ratioP1;P1;durP2;ratioP2;P2;SDS_P1;SDS_P2;PMS_P1;PMS_P2;Temp;Humidity;BMP_temperature;BMP_pressure;BME280_temperature;BME280_humidity;BME280_pressure;Samples;Min_cycle;Max_cycle;Signal;HPM_P1;HPM_P2
2022/05/15 00:02:37;;;;;;;6.95;3.55;;;14.20;99.90;;;;;;5096481;28;20494;-65
2022/05/15 00:05:06;;;;;;;7.13;3.33;;;14.20;99.90;;;;;;5097970;28;20147;-64
2022/05/15 00:07:33;;;;;;;7.82;4.18;;;14.20;99.90;;;;;;5089433;28;20509;-64
2022/05/15 00:10:03;;;;;;;6.45;3.90;;;14.20;99.90;;;;;;5091906;27;20143;-64
2022/05/15 00:12:30;;;;;;;7.40;3.38;;;14.30;99.90;;;;;;5093333;28;20075;-65
2022/05/15 00:14:58;;;;;;;6.07;3.38;;;14.20;99.90;;;;;;5109581;28;20051;-65
2022/05/15 00:17:25;;;;;;;8.18;3.80;;;14.20;99.90;;;;;;5105659;28;20039;-65
2022/05/15 00:19:53;;;;;;;5.45;3.45;;;14.20;99.90;;;;;;5106649;27;20081;-64
2022/05/15 00:22:20;;;;;;;7.53;3.42;;;14.20;99.90;;;;;;5097288;28;20055;-65
2022/05/15 00:24:47;;;;;;;7.47;3.90;;;14.10;99.90;;;;;;5093754;28;20051;-64
2022/05/15 00:27:14;;;;;;;7.38;3.67;;;14.10;99.90;;;;;;5095977;28;20044;-64
2022/05/15 00:29:42;;;;;;;6.38;3.33;;;14.10;99.90;;;;;;5102988;28;20031;-65
2022/05/15 00:32:10;;;;;;;6.38;3.17;;;14.00;99.90;;;;;;5091278;28;20089;-65
2022/05/15 00:34:37;;;;;;;6.38;3.40;;;14.00;99.90;;;;;;5095632;28;20487;-65
2022/05/15 00:37:04;;;;;;;7.20;3.75;;;14.00;99.90;;;;;;5115341;27;20089;-65
2022/05/15 00:39:31;;;;;;;6.50;3.00;;;14.00;99.90;;;;;;5102894;27;20047;-64
2022/05/15 00:41:59;;;;;;;5.95;3.13;;;14.00;99.90;;;;;;5098808;28;20052;-64
2022/05/15 00:44:26;;;;;;;8.40;3.53;;;14.00;99.90;;;;;;5090625;28;20105;-64
2022/05/15 00:46:53;;;;;;;5.20;3.40;;;13.90;99.90;;;;;;5092478;28;20059;-64
2022/05/15 00:49:21;;;;;;;8.50;3.90;;;13.90;99.90;;;;;;5097036;28;20120;-65
2022/05/15 00:52:04;;;;;;;8.38;4.13;;;13.90;99.90;;;;;;5104413;28;20066;-64
2022/05/15 00:54:34;;;;;;;9.52;3.63;;;13.90;99.90;;;;;;5091290;28;20071;-65
2022/05/15 00:57:15;;;;;;;7.45;3.83;;;13.80;99.90;;;;;;5091181;28;20044;-65
2022/05/15 00:59:49;;;;;;;8.00;4.20;;;13.80;99.90;;;;;;5099588;28;20039;-65
2022/05/15 01:02:17;;;;;;;11.68;4.20;;;13.80;99.90;;;;;;5109006;28;20036;-65
2022/05/15 01:04:46;;;;;;;9.85;4.13;;;13.80;99.90;;;;;;5104200;27;20459;-64
2022/05/15 01:07:14;;;;;;;10.93;3.90;;;13.70;99.90;;;;;;5095922;27;20040;-64
2022/05/15 01:09:41;;;;;;;8.02;3.63;;;13.70;99.90;;;;;;5086237;28;20479;-64
2022/05/15 01:12:12;;;;;;;9.25;3.80;;;13.70;99.90;;;;;;5102348;28;20499;-64
2022/05/15 01:14:46;;;;;;;5.40;3.13;;;13.60;99.90;;;;;;5103082;28;20050;-65
2022/05/15 01:17:14;;;;;;;7.10;3.88;;;13.60;99.90;;;;;;5097609;28;20160;-65
2022/05/15 01:19:44;;;;;;;6.20;3.50;;;13.60;99.90;;;;;;5108319;27;20506;-65
2022/05/15 01:22:15;;;;;;;7.60;3.58;;;13.50;99.90;;;;;;5098999;28;20040;-65
2022/05/15 01:24:43;;;;;;;9.80;4.22;;;13.40;99.90;;;;;;5080996;28;20049;-65
2022/05/15 01:27:13;;;;;;;6.90;3.55;;;13.40;99.90;;;;;;5104386;28;20036;-64
2022/05/15 01:29:44;;;;;;;7.68;3.97;;;13.40;99.90;;;;;;5101814;28;20085;-65
2022/05/15 01:32:14;;;;;;;7.82;3.88;;;13.40;99.90;;;;;;5109187;27;20031;-64
2022/05/15 01:34:42;;;;;;;8.75;3.63;;;13.40;99.90;;;;;;5102508;28;20198;-64
2022/05/15 01:37:10;;;;;;;7.28;4.18;;;13.30;99.90;;;;;;5100058;28;20201;-64
2022/05/15 01:39:38;;;;;;;7.53;3.95;;;13.20;99.90;;;;;;5103769;28;20040;-64
2022/05/15 01:42:06;;;;;;;5.50;3.60;;;13.20;99.90;;;;;;5103002;28;20113;-65
2022/05/15 01:44:34;;;;;;;9.43;4.15;;;13.20;99.90;;;;;;5103109;28;20493;-64
2022/05/15 01:47:02;;;;;;;9.80;3.88;;;13.10;99.90;;;;;;5103947;28;20534;-64
2022/05/15 01:49:31;;;;;;;9.88;4.20;;;13.10;99.90;;;;;;5105719;28;20475;-64
2022/05/15 01:51:59;;;;;;;10.48;4.78;;;13.00;99.90;;;;;;5107051;28;20048;-64
2022/05/15 01:54:27;;;;;;;9.95;4.95;;;13.00;99.90;;;;;;5105936;28;20156;-64
2022/05/15 01:56:55;;;;;;;8.13;4.72;;;12.90;99.90;;;;;;5100537;28;20491;-64
2022/05/15 01:59:24;;;;;;;12.63;5.20;;;12.90;99.90;;;;;;5102356;28;20138;-64
2022/05/15 02:01:51;;;;;;;10.65;5.18;;;12.80;99.90;;;;;;5090873;28;20063;-64
2022/05/15 02:04:19;;;;;;;8.68;4.85;;;12.80;99.90;;;;;;5120513;28;20048;-65
2022/05/15 02:06:46;;;;;;;9.82;5.15;;;12.80;99.90;;;;;;5103848;28;20096;-63
2022/05/15 02:09:14;;;;;;;10.55;5.38;;;12.80;99.90;;;;;;5107080;28;20043;-64
2022/05/15 02:11:41;;;;;;;9.93;5.10;;;12.70;99.90;;;;;;5105360;28;20459;-63
2022/05/15 02:14:09;;;;;;;9.95;5.72;;;12.60;99.90;;;;;;5106329;28;20614;-63
2022/05/15 02:16:37;;;;;;;7.75;5.13;;;12.70;99.90;;;;;;5100610;28;20039;-63
2022/05/15 02:19:06;;;;;;;8.77;5.07;;;12.60;99.90;;;;;;5108974;28;20450;-64
2022/05/15 02:21:34;;;;;;;9.45;4.93;;;12.60;99.90;;;;;;5099527;28;20579;-64
2022/05/15 02:24:02;;;;;;;10.73;5.35;;;12.60;99.90;;;;;;5101686;28;20454;-63
2022/05/15 02:26:32;;;;;;;9.88;5.38;;;12.60;99.90;;;;;;5099082;28;20371;-63
2022/05/15 02:28:59;;;;;;;8.25;5.60;;;12.50;99.90;;;;;;5104965;28;20047;-63
2022/05/15 02:31:27;;;;;;;8.18;4.97;;;12.50;99.90;;;;;;5105992;28;20176;-64
2022/05/15 02:33:55;;;;;;;15.10;6.18;;;12.40;99.90;;;;;;5106704;28;20122;-64
2022/05/15 02:36:22;;;;;;;13.57;5.60;;;12.40;99.90;;;;;;5104702;28;20042;-64
2022/05/15 02:38:49;;;;;;;11.80;6.07;;;12.40;99.90;;;;;;5106269;28;20070;-64
2022/05/15 02:41:17;;;;;;;11.90;5.63;;;12.30;99.90;;;;;;5103941;28;20071;-64
2022/05/15 02:43:45;;;;;;;12.32;6.18;;;12.30;99.90;;;;;;5105743;28;20074;-64
2022/05/15 02:46:13;;;;;;;15.85;6.82;;;12.30;99.90;;;;;;5085205;28;20465;-65
2022/05/15 02:51:29;;;;;;;14.75;6.03;;;12.30;99.90;;;;;;5105680;28;20071;-64
2022/05/15 02:53:56;;;;;;;13.55;5.70;;;12.30;99.90;;;;;;5105759;28;20047;-64
2022/05/15 02:56:28;;;;;;;11.98;5.55;;;12.20;99.90;;;;;;5111042;28;20035;-64
2022/05/15 02:58:57;;;;;;;14.07;6.07;;;12.20;99.90;;;;;;5107248;28;20044;-64
2022/05/15 03:01:25;;;;;;;12.00;6.45;;;12.20;99.90;;;;;;5095069;28;20549;-64
2022/05/15 03:03:53;;;;;;;12.55;7.70;;;12.20;99.90;;;;;;5095212;28;20095;-65
2022/05/15 03:06:20;;;;;;;15.05;6.82;;;12.10;99.90;;;;;;5091079;28;20052;-64
2022/05/15 03:08:50;;;;;;;15.05;6.47;;;12.10;99.90;;;;;;5105494;28;20514;-64
2022/05/15 03:11:18;;;;;;;13.52;6.53;;;12.10;99.90;;;;;;5104729;28;20059;-64
2022/05/15 03:13:46;;;;;;;14.43;6.63;;;12.10;99.90;;;;;;5108730;28;20039;-64
2022/05/15 03:16:15;;;;;;;10.13;6.22;;;12.00;99.90;;;;;;5096573;28;20040;-64
2022/05/15 03:18:51;;;;;;;12.65;6.25;;;12.00;99.90;;;;;;5107498;28;20061;-64
2022/05/15 03:21:31;;;;;;;11.35;6.20;;;12.00;99.90;;;;;;5108342;28;20542;-64
2022/05/15 03:24:09;;;;;;;11.85;6.35;;;11.90;99.90;;;;;;5093352;28;20119;-64
2022/05/15 03:26:47;;;;;;;11.18;6.47;;;12.00;99.90;;;;;;5105735;28;20143;-64
2022/05/15 03:29:18;;;;;;;11.75;6.32;;;12.00;99.90;;;;;;5105798;28;20246;-64
2022/05/15 03:31:46;;;;;;;13.52;5.85;;;12.00;99.90;;;;;;5107710;28;20078;-64
2022/05/15 03:34:16;;;;;;;15.35;6.95;;;11.90;99.90;;;;;;5106795;28;20052;-64
2022/05/15 03:36:46;;;;;;;13.20;6.95;;;11.90;99.90;;;;;;5107587;28;20035;-64
2022/05/15 03:39:14;;;;;;;17.83;6.45;;;12.00;99.90;;;;;;5108294;28;20044;-64
2022/05/15 03:41:43;;;;;;;16.90;6.28;;;12.00;99.90;;;;;;5103842;28;20317;-65
2022/05/15 03:44:10;;;;;;;12.75;6.07;;;11.90;99.90;;;;;;5100386;28;20558;-64
2022/05/15 03:46:39;;;;;;;14.18;6.47;;;12.00;99.90;;;;;;5103119;28;20036;-65
2022/05/15 03:49:07;;;;;;;12.07;5.80;;;12.00;99.90;;;;;;5105822;28;20046;-64
2022/05/15 03:51:34;;;;;;;9.90;5.78;;;11.90;99.90;;;;;;5108790;28;20512;-64
2022/05/15 03:54:02;;;;;;;12.73;5.75;;;12.00;99.90;;;;;;5106984;28;20047;-64
2022/05/15 03:59:23;;;;;;;9.73;5.20;;;12.00;99.90;;;;;;5108380;28;20088;-64
2022/05/15 04:01:50;;;;;;;10.02;5.20;;;12.00;99.90;;;;;;5097675;28;20036;-65
2022/05/15 04:04:18;;;;;;;16.95;5.22;;;12.00;99.90;;;;;;5106123;28;20040;-65
2022/05/15 04:06:46;;;;;;;10.20;5.50;;;12.00;99.90;;;;;;5086838;28;20044;-64
2022/05/15 04:09:14;;;;;;;12.95;5.65;;;12.00;99.90;;;;;;5088011;28;20047;-65
2022/05/15 04:11:42;;;;;;;12.05;5.00;;;12.00;99.90;;;;;;5088395;28;20491;-64
2022/05/15 04:14:09;;;;;;;11.05;5.55;;;12.00;99.90;;;;;;5109091;28;20039;-64
2022/05/15 04:16:37;;;;;;;9.90;5.43;;;12.10;99.90;;;;;;5106040;27;20032;-64
2022/05/15 04:19:06;;;;;;;9.07;5.30;;;12.10;99.90;;;;;;5107852;27;20035;-65
2022/05/15 04:21:37;;;;;;;12.18;5.93;;;12.20;99.90;;;;;;5104973;28;20556;-65
2022/05/15 04:24:10;;;;;;;14.45;6.43;;;12.20;99.90;;;;;;5103074;28;20043;-64
2022/05/15 04:26:39;;;;;;;17.27;6.85;;;12.20;99.90;;;;;;5108640;28;20508;-64
2022/05/15 04:29:08;;;;;;;20.83;6.35;;;12.20;99.90;;;;;;5110242;28;20143;-65
2022/05/15 04:31:35;;;;;;;12.98;6.15;;;12.20;99.90;;;;;;5094754;28;20044;-64
2022/05/15 04:34:04;;;;;;;20.55;6.45;;;12.30;99.90;;;;;;5105266;28;20042;-64
2022/05/15 04:36:33;;;;;;;16.30;6.30;;;12.30;99.90;;;;;;5092759;28;20093;-64
2022/05/15 04:39:03;;;;;;;18.00;6.03;;;12.30;99.90;;;;;;5092351;28;20075;-64
2022/05/15 04:41:31;;;;;;;15.93;6.10;;;12.40;99.90;;;;;;5092925;28;20127;-63
2022/05/15 04:43:59;;;;;;;14.55;6.35;;;12.50;99.90;;;;;;5101774;27;20525;-64
2022/05/15 04:46:27;;;;;;;15.20;6.38;;;12.50;99.90;;;;;;5104363;28;20043;-63
2022/05/15 04:48:55;;;;;;;13.45;5.97;;;12.60;99.90;;;;;;5108002;28;20040;-63
2022/05/15 04:51:23;;;;;;;11.75;6.03;;;12.60;99.90;;;;;;5109581;28;20158;-64
2022/05/15 04:53:53;;;;;;;11.55;7.03;;;12.70;99.90;;;;;;5101632;28;20447;-64
2022/05/15 04:56:21;;;;;;;10.85;6.05;;;12.70;99.90;;;;;;5104323;28;20055;-66
2022/05/15 04:58:48;;;;;;;13.90;7.18;;;12.80;99.90;;;;;;5109505;28;20042;-64
2022/05/15 05:01:17;;;;;;;13.00;6.65;;;12.90;99.90;;;;;;5089940;28;20040;-65
2022/05/15 05:03:45;;;;;;;11.38;6.68;;;12.80;99.90;;;;;;5089308;28;20105;-64
2022/05/15 05:06:13;;;;;;;11.27;6.55;;;12.90;99.90;;;;;;5087608;28;20048;-64
2022/05/15 05:08:40;;;;;;;12.25;6.38;;;12.90;99.90;;;;;;5101958;28;20070;-64
2022/05/15 05:11:07;;;;;;;10.68;7.18;;;13.00;99.90;;;;;;5103779;27;20104;-64
2022/05/15 05:13:34;;;;;;;13.52;6.10;;;13.00;99.90;;;;;;5109448;28;20110;-65
2022/05/15 05:16:02;;;;;;;13.05;7.47;;;13.10;99.90;;;;;;5099349;28;20047;-65
2022/05/15 05:18:30;;;;;;;12.50;7.07;;;13.10;99.90;;;;;;5099414;28;20474;-65
2022/05/15 05:20:57;;;;;;;16.17;6.78;;;13.20;99.90;;;;;;5105473;27;20122;-65
2022/05/15 05:23:25;;;;;;;12.18;6.28;;;13.30;99.90;;;;;;5103426;28;20050;-66
2022/05/15 05:25:52;;;;;;;12.90;7.30;;;13.30;99.90;;;;;;5106123;28;20537;-67
2022/05/15 05:28:20;;;;;;;12.95;6.72;;;13.50;99.90;;;;;;5108940;28;20105;-64
2022/05/15 05:30:47;;;;;;;10.98;7.38;;;13.50;99.90;;;;;;5096020;28;20047;-65
2022/05/15 05:33:14;;;;;;;10.80;7.00;;;13.50;99.90;;;;;;5109408;28;20070;-64
2022/05/15 05:35:42;;;;;;;11.75;7.15;;;13.50;99.90;;;;;;5098590;28;20051;-65
2022/05/15 05:38:10;;;;;;;15.63;7.18;;;13.60;99.90;;;;;;5099897;27;20044;-64
2022/05/15 05:40:38;;;;;;;11.50;6.43;;;13.70;99.90;;;;;;5110171;27;20505;-65
2022/05/15 05:43:06;;;;;;;15.25;7.80;;;13.90;99.90;;;;;;5095884;28;20138;-63
2022/05/15 05:45:33;;;;;;;9.55;6.32;;;14.10;99.90;;;;;;5095800;28;20569;-64
2022/05/15 05:48:00;;;;;;;10.05;5.43;;;14.20;99.90;;;;;;5108051;28;20047;-64
2022/05/15 05:50:28;;;;;;;11.43;6.03;;;14.30;99.90;;;;;;5103794;28;20051;-65
2022/05/15 05:52:57;;;;;;;11.82;5.43;;;14.40;99.90;;;;;;5102198;28;20093;-65
2022/05/15 05:55:26;;;;;;;10.48;6.57;;;14.60;99.90;;;;;;5088314;28;20044;-65
2022/05/15 05:57:54;;;;;;;13.35;5.53;;;14.70;99.90;;;;;;5089132;28;20243;-65
2022/05/15 06:00:26;;;;;;;9.45;6.30;;;14.80;99.90;;;;;;5104637;28;20133;-65
2022/05/15 06:04:39;;;;;;;10.63;6.13;;;14.90;99.90;;;;;;5092295;28;21366;-65
2022/05/15 06:05:43;;;;;;;11.75;5.85;;;15.10;99.90;;;;;;5093022;28;20047;-64
2022/05/15 06:08:10;;;;;;;11.85;5.68;;;15.20;99.90;;;;;;5089695;28;20044;-65
2022/05/15 06:10:38;;;;;;;9.52;4.88;;;15.30;99.90;;;;;;5090740;28;20040;-65
2022/05/15 06:13:05;;;;;;;8.77;5.05;;;15.40;99.90;;;;;;5089997;28;20063;-65
2022/05/15 06:15:34;;;;;;;7.85;4.80;;;15.40;99.90;;;;;;5096651;28;20109;-65
2022/05/15 06:18:04;;;;;;;11.60;4.28;;;15.60;99.90;;;;;;5100099;28;20040;-65
2022/05/15 06:20:33;;;;;;;10.07;4.15;;;15.70;99.90;;;;;;5099160;28;20054;-65
2022/05/15 06:23:00;;;;;;;6.55;3.78;;;15.80;99.90;;;;;;5106885;28;20513;-64
2022/05/15 06:25:28;;;;;;;11.93;4.50;;;15.90;99.90;;;;;;5103065;28;20124;-65
2022/05/15 06:27:55;;;;;;;10.05;4.60;;;16.00;99.90;;;;;;5107818;28;20431;-64
2022/05/15 06:30:23;;;;;;;7.53;5.10;;;16.20;99.90;;;;;;5099056;28;20105;-65
2022/05/15 06:32:50;;;;;;;10.23;6.60;;;16.30;99.90;;;;;;5113482;28;20058;-66
2022/05/15 06:35:18;;;;;;;9.63;4.90;;;16.40;99.90;;;;;;5088234;28;20043;-65
2022/05/15 06:37:45;;;;;;;9.82;4.65;;;16.60;99.90;;;;;;5107917;28;20046;-65
2022/05/15 06:40:14;;;;;;;10.65;5.07;;;16.70;99.90;;;;;;5109926;28;20470;-65
2022/05/15 06:42:42;;;;;;;9.10;4.45;;;16.80;99.90;;;;;;5108529;28;20506;-64
2022/05/15 06:45:12;;;;;;;10.63;4.28;;;16.90;99.90;;;;;;5107517;28;20226;-65
2022/05/15 06:47:40;;;;;;;7.53;4.18;;;17.00;99.90;;;;;;5104187;28;20120;-65
2022/05/15 06:50:08;;;;;;;9.88;5.18;;;17.10;99.90;;;;;;5111352;28;20485;-66
2022/05/15 06:52:37;;;;;;;9.43;4.57;;;17.20;99.90;;;;;;5101658;28;20068;-67
2022/05/15 06:55:08;;;;;;;7.43;3.58;;;17.30;99.90;;;;;;5106309;28;20482;-66
2022/05/15 06:57:37;;;;;;;11.25;4.18;;;17.40;99.90;;;;;;5103523;28;20577;-66
2022/05/15 07:00:09;;;;;;;7.90;3.67;;;17.50;99.90;;;;;;5109243;27;20054;-66
2022/05/15 07:02:37;;;;;;;8.57;3.88;;;17.60;99.90;;;;;;5105446;28;20050;-66
2022/05/15 07:05:05;;;;;;;11.02;3.90;;;17.70;99.90;;;;;;5091000;28;20493;-65
2022/05/15 07:07:32;;;;;;;7.57;3.33;;;17.80;99.90;;;;;;5098703;28;20462;-65
2022/05/15 07:09:59;;;;;;;10.00;4.30;;;17.80;99.90;;;;;;5102652;28;20565;-66
2022/05/15 07:12:27;;;;;;;12.10;3.60;;;17.90;99.90;;;;;;5104035;28;20033;-65
2022/05/15 07:14:54;;;;;;;7.93;3.63;;;18.00;99.90;;;;;;5109292;28;20047;-64
2022/05/15 07:17:21;;;;;;;8.70;3.28;;;18.00;99.90;;;;;;5109882;28;20518;-65
2022/05/15 07:19:50;;;;;;;7.60;3.58;;;18.10;99.90;;;;;;5111420;28;20185;-65
2022/05/15 07:22:17;;;;;;;10.18;3.40;;;18.10;99.90;;;;;;5111089;28;20567;-65
2022/05/15 07:24:45;;;;;;;7.10;3.55;;;18.20;99.90;;;;;;5110898;28;20432;-65
2022/05/15 07:27:14;;;;;;;8.20;3.33;;;18.30;99.90;;;;;;5111059;27;20047;-65
2022/05/15 07:29:42;;;;;;;7.90;3.45;;;18.40;99.90;;;;;;5111627;28;20570;-66
2022/05/15 07:32:10;;;;;;;10.05;4.07;;;18.50;99.90;;;;;;5112303;28;20047;-67
2022/05/15 07:34:38;;;;;;;14.85;3.70;;;18.60;99.90;;;;;;5096702;28;20090;-66
2022/05/15 07:37:06;;;;;;;11.35;3.95;;;18.70;99.90;;;;;;5099430;28;20035;-66
2022/05/15 07:39:34;;;;;;;10.68;3.45;;;18.80;99.90;;;;;;5094911;27;20159;-65
2022/05/15 07:42:01;;;;;;;7.72;3.78;;;18.90;99.90;;;;;;5101970;28;20131;-66
2022/05/15 07:44:28;;;;;;;7.45;3.67;;;19.00;99.90;;;;;;5092034;28;20052;-65
2022/05/15 07:46:56;;;;;;;7.63;3.50;;;19.00;99.90;;;;;;5091404;28;20483;-65
2022/05/15 07:49:23;;;;;;;7.30;3.78;;;19.20;99.90;;;;;;5103527;28;20047;-65
2022/05/15 07:51:50;;;;;;;10.00;4.65;;;19.20;99.90;;;;;;5094569;27;20043;-65
2022/05/15 07:54:18;;;;;;;11.40;6.80;;;19.40;99.90;;;;;;5105872;27;20032;-66
2022/05/15 07:56:46;;;;;;;6.90;3.45;;;19.50;99.90;;;;;;5100546;28;20435;-65
2022/05/15 07:59:13;;;;;;;8.10;3.92;;;19.50;99.90;;;;;;5109072;28;20071;-66
2022/05/15 08:01:42;;;;;;;9.00;3.53;;;19.60;99.90;;;;;;5105855;28;20046;-65
2022/05/15 08:04:10;;;;;;;11.27;5.20;;;19.70;99.90;;;;;;5104347;28;20194;-67
2022/05/15 08:09:23;;;;;;;11.10;5.43;;;19.80;99.90;;;;;;5097281;28;20040;-66
2022/05/15 08:11:51;;;;;;;7.85;4.00;;;20.00;99.90;;;;;;5100609;28;20155;-64
2022/05/15 08:14:20;;;;;;;8.98;3.47;;;20.00;99.90;;;;;;5098627;28;20422;-66
2022/05/15 08:16:47;;;;;;;7.10;4.18;;;19.90;99.90;;;;;;5099773;28;20046;-65
2022/05/15 08:24:46;;;;;;;8.75;4.03;;;20.20;99.90;;;;;;5109739;28;20149;-65
2022/05/15 08:27:14;;;;;;;7.93;3.72;;;20.40;99.90;;;;;;5109481;28;20043;-65
2022/05/15 08:29:41;;;;;;;6.93;3.53;;;20.60;99.90;;;;;;5108619;28;20074;-65
2022/05/15 08:32:08;;;;;;;6.47;3.50;;;20.80;99.90;;;;;;5105908;28;20035;-65
2022/05/15 08:34:41;;;;;;;8.48;4.80;;;21.00;99.90;;;;;;5097679;28;20052;-66
2022/05/15 08:37:09;;;;;;;11.25;5.65;;;21.10;99.90;;;;;;5096368;28;20055;-65
2022/05/15 08:39:36;;;;;;;9.85;4.57;;;21.20;99.90;;;;;;5106769;28;20040;-65
2022/05/15 08:42:41;;;;;;;7.45;4.25;;;21.30;99.90;;;;;;5102912;28;20075;-66
2022/05/15 08:45:13;;;;;;;7.40;3.65;;;21.50;99.90;;;;;;5026638;28;20407;-66
2022/05/15 08:47:45;;;;;;;10.00;5.43;;;21.60;99.90;;;;;;5041763;28;20535;-65
2022/05/15 08:50:16;;;;;;;11.63;4.20;;;21.80;99.90;;;;;;5043452;28;20041;-65
2022/05/15 08:53:19;;;;;;;7.40;3.10;;;21.90;99.90;;;;;;5045903;28;20131;-65
2022/05/15 08:55:55;;;;;;;8.13;3.47;;;21.80;99.90;;;;;;5032657;28;20076;-65
2022/05/15 08:58:26;;;;;;;10.05;5.50;;;21.80;99.90;;;;;;5047472;28;20116;-65
2022/05/15 09:00:55;;;;;;;10.10;3.20;;;21.80;99.90;;;;;;5041729;28;20065;-65
2022/05/15 09:03:26;;;;;;;8.63;3.90;;;21.90;99.90;;;;;;5038547;28;20056;-65
2022/05/15 09:05:58;;;;;;;8.38;3.38;;;21.90;99.90;;;;;;5045357;28;20051;-66
2022/05/15 09:08:46;;;;;;;9.00;3.40;;;22.10;99.90;;;;;;5046054;28;20059;-66
2022/05/15 09:11:22;;;;;;;6.97;4.07;;;22.40;99.90;;;;;;5038460;28;20063;-65
2022/05/15 09:14:14;;;;;;;7.20;3.50;;;22.50;99.90;;;;;;5043859;28;20049;-65
2022/05/15 09:16:57;;;;;;;7.65;3.03;;;22.80;99.90;;;;;;5042142;28;20049;-65
2022/05/15 09:19:25;;;;;;;6.10;2.85;;;23.00;99.90;;;;;;5043150;28;20045;-66
2022/05/15 09:21:54;;;;;;;5.20;2.80;;;23.10;99.90;;;;;;5063266;28;20446;-65
2022/05/15 09:24:45;;;;;;;7.93;3.58;;;23.30;99.90;;;;;;5094727;28;20540;-66
2022/05/15 09:27:16;;;;;;;5.72;2.15;;;23.50;99.90;;;;;;5092160;28;20044;-65
2022/05/15 09:29:54;;;;;;;8.03;4.70;;;23.40;99.90;;;;;;5091966;28;20469;-65
2022/05/15 09:32:54;;;;;;;9.27;3.80;;;23.50;99.90;;;;;;5090742;28;20043;-66
2022/05/15 09:35:41;;;;;;;11.18;6.75;;;23.80;99.90;;;;;;5083887;28;20058;-64
2022/05/15 09:38:27;;;;;;;5.65;2.33;;;24.10;99.90;;;;;;5093041;28;20555;-65
2022/05/15 09:44:28;;;;;;;7.63;3.03;;;24.20;99.90;;;;;;5105989;28;20077;-65
2022/05/15 09:47:01;;;;;;;8.75;3.15;;;24.50;99.90;;;;;;5091462;28;20044;-65
2022/05/15 09:49:33;;;;;;;5.30;2.13;;;24.70;99.30;;;;;;5091874;28;20492;-65
2022/05/15 09:52:21;;;;;;;5.57;2.83;;;25.00;98.20;;;;;;5093771;28;20467;-67
2022/05/15 09:54:50;;;;;;;5.60;2.58;;;25.00;97.90;;;;;;5091031;28;20043;-66
2022/05/15 09:57:25;;;;;;;6.72;2.80;;;25.10;97.40;;;;;;5097466;28;20565;-65
2022/05/15 09:59:58;;;;;;;5.72;2.13;;;25.40;96.50;;;;;;5099705;28;20027;-65
2022/05/15 10:02:42;;;;;;;16.02;10.80;;;25.60;95.30;;;;;;5096635;28;20066;-65
2022/05/15 10:05:26;;;;;;;8.32;4.10;;;25.70;94.30;;;;;;5103114;28;20373;-65
2022/05/15 10:08:10;;;;;;;6.32;3.00;;;26.00;93.50;;;;;;5086428;28;20052;-64
2022/05/15 10:10:47;;;;;;;6.80;3.70;;;26.10;93.20;;;;;;5091534;28;20073;-65
2022/05/15 10:13:28;;;;;;;8.63;3.42;;;26.30;92.50;;;;;;5098779;28;20040;-65
2022/05/15 10:16:02;;;;;;;10.45;4.55;;;26.30;91.80;;;;;;5099984;28;20036;-65
2022/05/15 10:18:34;;;;;;;8.52;4.22;;;26.20;91.00;;;;;;5094494;28;20036;-65
2022/05/15 10:21:03;;;;;;;4.50;1.67;;;26.30;91.00;;;;;;5110033;28;20070;-65
2022/05/15 10:23:43;;;;;;;7.85;2.40;;;26.20;90.70;;;;;;5102221;27;20043;-65
2022/05/15 10:26:26;;;;;;;6.05;2.75;;;26.30;90.60;;;;;;5111500;28;20051;-65
2022/05/15 10:29:00;;;;;;;6.28;2.15;;;26.50;90.20;;;;;;5109473;27;20051;-65
2022/05/15 10:31:52;;;;;;;10.00;3.28;;;26.60;90.40;;;;;;5099630;27;20516;-65
2022/05/15 10:34:25;;;;;;;4.53;1.90;;;26.80;90.00;;;;;;5092469;27;20135;-65
2022/05/15 10:37:03;;;;;;;8.52;3.40;;;26.90;88.60;;;;;;5096291;28;20044;-65
2022/05/15 10:40:08;;;;;;;10.63;2.97;;;27.10;88.50;;;;;;5094082;28;20040;-64
2022/05/15 10:42:58;;;;;;;7.35;4.20;;;27.30;89.20;;;;;;5095634;28;20044;-65
2022/05/15 10:45:40;;;;;;;6.15;2.35;;;27.50;87.70;;;;;;5096629;28;20500;-65
2022/05/15 10:48:32;;;;;;;8.68;4.30;;;27.60;87.00;;;;;;5096196;28;20526;-65
2022/05/15 10:51:09;;;;;;;;;;;28.00;86.80;;;;;;5106498;27;20088;-65
2022/05/15 11:00:14;;;;;;;9.60;4.05;;;28.00;85.10;;;;;;5094324;28;20605;-65
2022/05/15 11:03:17;;;;;;;8.93;3.60;;;28.20;83.70;;;;;;5091508;28;20062;-64
2022/05/15 11:05:44;;;;;;;3.38;1.50;;;28.20;82.60;;;;;;5108631;27;20537;-65
2022/05/15 11:08:40;;;;;;;6.20;1.90;;;28.50;82.10;;;;;;5100736;28;20139;-65
2022/05/15 11:11:17;;;;;;;4.68;1.70;;;28.70;80.60;;;;;;5111015;28;20047;-64
2022/05/15 11:13:56;;;;;;;7.40;2.17;;;28.80;79.50;;;;;;5105025;28;20039;-65
2022/05/15 11:16:23;;;;;;;7.30;3.75;;;28.90;78.40;;;;;;5091381;28;20036;-65
2022/05/15 11:19:21;;;;;;;11.32;7.47;;;29.30;78.90;;;;;;5104348;27;20661;-64
2022/05/15 11:22:31;;;;;;;5.18;2.72;;;29.50;78.10;;;;;;5106249;28;20046;-65
2022/05/15 11:25:31;;;;;;;5.00;1.90;;;30.10;76.00;;;;;;5046898;28;20156;-66
2022/05/15 11:28:19;;;;;;;5.00;2.17;;;30.30;75.00;;;;;;5046323;28;20040;-65
2022/05/15 11:31:07;;;;;;;6.15;2.10;;;30.60;73.30;;;;;;5036193;28;20469;-65
2022/05/15 11:33:44;;;;;;;7.00;1.80;;;30.80;72.60;;;;;;5048549;28;20041;-65
2022/05/15 11:36:26;;;;;;;4.10;1.80;;;30.70;71.80;;;;;;5046846;28;20095;-64
2022/05/15 11:39:15;;;;;;;4.47;1.90;;;31.10;70.90;;;;;;5042035;28;20831;-65
2022/05/15 11:42:19;;;;;;;5.93;2.65;;;31.70;69.70;;;;;;5044329;28;20527;-65
2022/05/15 11:44:41;;;;;;;6.18;2.80;;;32.20;68.50;;;;;;5043167;28;20059;-65
2022/05/15 11:47:14;;;;;;;10.02;2.40;;;32.30;66.90;;;;;;5042959;28;20176;-64
2022/05/15 11:50:00;;;;;;;4.95;2.10;;;32.50;65.80;;;;;;5045481;28;20055;-65
2022/05/15 11:52:37;;;;;;;5.43;1.90;;;32.40;65.50;;;;;;5039956;28;20127;-65
2022/05/15 11:55:38;;;;;;;7.00;2.35;;;32.00;64.20;;;;;;5046745;28;20043;-65
2022/05/15 11:58:26;;;;;;;5.35;1.90;;;32.10;64.40;;;;;;5045173;28;20136;-65
2022/05/15 12:01:31;;;;;;;4.25;2.10;;;32.70;63.70;;;;;;5055021;28;20558;-65
2022/05/15 12:04:03;;;;;;;6.32;1.77;;;33.10;62.80;;;;;;5045842;28;20048;-65
2022/05/15 12:06:52;;;;;;;6.20;2.08;;;33.20;62.70;;;;;;5066953;28;20044;-65
2022/05/15 12:09:39;;;;;;;5.43;2.00;;;33.20;61.70;;;;;;5036968;28;20037;-65
2022/05/15 12:12:27;;;;;;;6.00;1.80;;;33.30;61.70;;;;;;5063764;28;20044;-65
2022/05/15 12:15:16;;;;;;;6.75;2.13;;;33.70;60.80;;;;;;5063427;28;20108;-65
2022/05/15 12:17:52;;;;;;;6.30;1.92;;;33.80;60.00;;;;;;5067167;28;20044;-65
2022/05/15 12:20:28;;;;;;;6.13;2.15;;;34.00;60.20;;;;;;5066480;28;20456;-65
2022/05/15 12:23:09;;;;;;;5.32;1.88;;;34.50;59.80;;;;;;5066144;28;20056;-65
2022/05/15 12:26:05;;;;;;;6.40;1.90;;;34.70;59.10;;;;;;5066470;28;20054;-65
2022/05/15 12:29:07;;;;;;;3.67;1.60;;;34.30;57.20;;;;;;5070384;28;20052;-65
2022/05/15 12:31:42;;;;;;;3.58;1.80;;;34.10;57.20;;;;;;5053988;28;20491;-65
2022/05/15 12:34:22;;;;;;;4.95;1.80;;;34.00;57.50;;;;;;5065126;28;20057;-65
2022/05/15 12:36:59;;;;;;;4.78;2.25;;;34.10;58.30;;;;;;5047256;28;20078;-65
2022/05/15 12:39:30;;;;;;;5.18;1.92;;;34.40;57.90;;;;;;5065250;28;20041;-65
2022/05/15 12:42:07;;;;;;;4.55;2.05;;;34.30;57.10;;;;;;5092447;28;20051;-64
2022/05/15 12:44:37;;;;;;;6.20;2.15;;;33.80;57.60;;;;;;5096293;28;20036;-64
2022/05/15 12:47:09;;;;;;;5.47;1.95;;;34.50;57.90;;;;;;5106527;28;20040;-65
2022/05/15 12:49:43;;;;;;;4.03;1.77;;;35.00;57.00;;;;;;5095084;28;20074;-65
2022/05/15 12:52:27;;;;;;;3.45;1.70;;;35.60;55.80;;;;;;5099323;28;20089;-64
2022/05/15 12:54:58;;;;;;;4.82;2.20;;;35.60;55.10;;;;;;5108053;28;20050;-65
2022/05/15 12:57:26;;;;;;;8.68;1.80;;;35.90;54.80;;;;;;5102365;28;20038;-64
2022/05/15 12:59:54;;;;;;;4.32;1.67;;;35.80;55.30;;;;;;5108435;28;20054;-66
2022/05/15 13:02:33;;;;;;;6.45;1.90;;;35.90;54.60;;;;;;5111937;28;20131;-65
2022/05/15 13:05:03;;;;;;;5.90;2.00;;;36.30;55.00;;;;;;5111954;28;20075;-65
2022/05/15 13:07:37;;;;;;;7.25;1.95;;;36.50;53.50;;;;;;5092453;28;20046;-65
2022/05/15 13:10:09;;;;;;;4.93;2.22;;;36.30;53.20;;;;;;5101995;28;20066;-65
2022/05/15 13:12:50;;;;;;;6.70;2.20;;;36.10;53.40;;;;;;5092541;27;20166;-64
2022/05/15 13:15:25;;;;;;;7.03;1.88;;;36.40;53.10;;;;;;5103557;28;20490;-65
2022/05/15 13:17:55;;;;;;;7.03;2.03;;;36.70;53.30;;;;;;5090636;28;20052;-65
2022/05/15 13:20:24;;;;;;;4.13;1.63;;;37.00;52.50;;;;;;5108290;27;20085;-65
2022/05/15 13:22:54;;;;;;;9.43;6.03;;;37.10;51.20;;;;;;5115415;27;20387;-66
2022/05/15 13:25:31;;;;;;;5.93;2.38;;;37.40;51.00;;;;;;5090382;28;20062;-65
2022/05/15 13:27:58;;;;;;;5.25;2.35;;;36.80;51.10;;;;;;5109045;28;20039;-66
2022/05/15 13:30:28;;;;;;;6.80;2.05;;;37.00;50.80;;;;;;5095352;28;20058;-65
2022/05/15 13:33:03;;;;;;;4.65;1.90;;;36.90;50.50;;;;;;5099558;28;20494;-65
2022/05/15 13:35:54;;;;;;;5.78;2.35;;;36.60;50.40;;;;;;5099539;28;20044;-65